Roaring Gap, North Carolina
Current Conditions -  °F | °C
As of 11:15 AM on Monday 24 Nov 2014 (Local Time) from KUKF Reporting Station
Clear Clear  
Wind Chill: 63°   Ceiling: Unl
Heat Index: 63°   Visibility: 10mi
Dew Point: 55°   Wind: 8mph
Humidity: 77%   Direction: 210°SSW
Pressure: 29.81"   Gusts: NA
Location:  36.4°N, 80.98°W
Report Text: KUKF 241615Z AUTO 21007KT 10SM CLR 17/13 A2981 RMK AO2
Loading
Personal Weather Stations






























Interactive Weather Map New forecast layout! Learn more

10-Day Weather Forecast

Advertisements
Track Severe Weather on mobile